createdAt,value
2022-10-12T00:02:16.306Z,10.42
2022-10-12T00:07:18.895Z,10.42
2022-10-12T00:12:21.273Z,11.58
2022-10-12T00:17:23.696Z,12.10
2022-10-12T00:22:26.295Z,12.46
2022-10-12T00:27:28.697Z,12.66
2022-10-12T00:32:31.253Z,12.75
2022-10-12T00:37:33.778Z,12.84
2022-10-12T00:42:36.203Z,12.90
2022-10-12T00:47:44.804Z,12.96
2022-10-12T00:52:55.786Z,13.05
2022-10-12T00:57:58.852Z,12.75
2022-10-12T01:03:01.921Z,11.41
2022-10-12T01:08:04.464Z,10.49
2022-10-12T01:13:07.465Z,10.54
2022-10-12T01:18:19.039Z,11.79
2022-10-12T01:23:59.494Z,12.35
2022-10-12T01:29:36.965Z,12.65
2022-10-12T01:35:13.744Z,12.75
2022-10-12T01:40:23.910Z,12.84
2022-10-12T01:45:26.465Z,12.88
2022-10-12T01:50:41.557Z,13.01
2022-10-12T01:55:57.237Z,13.13
2022-10-12T02:01:38.717Z,13.17
2022-10-12T02:06:45.063Z,13.28
2022-10-12T02:11:52.535Z,13.37
2022-10-12T02:17:00.395Z,12.97
2022-10-12T02:22:05.971Z,11.33
2022-10-12T02:27:11.071Z,10.29
2022-10-12T02:32:38.489Z,10.18
2022-10-12T02:37:46.435Z,11.39
2022-10-12T02:43:11.131Z,11.97
2022-10-12T02:48:20.537Z,12.28
2022-10-12T02:53:26.209Z,12.47
2022-10-12T02:58:28.688Z,12.58
2022-10-12T03:03:31.135Z,12.64
2022-10-12T03:08:33.958Z,12.66
2022-10-12T03:13:36.769Z,11.94
2022-10-12T03:18:39.839Z,10.39
2022-10-12T03:23:42.310Z,9.67
2022-10-12T03:28:45.286Z,10.59
2022-10-12T03:33:47.960Z,11.38
2022-10-12T03:38:50.351Z,11.71
2022-10-12T03:43:52.852Z,12.22
2022-10-12T03:48:55.355Z,12.95
2022-10-12T03:53:57.817Z,13.44
2022-10-12T03:59:00.281Z,12.89
2022-10-12T04:04:02.767Z,11.08
2022-10-12T04:09:05.255Z,10.49
2022-10-12T04:14:07.701Z,11.21
2022-10-12T04:19:13.450Z,11.68
2022-10-12T04:24:15.903Z,11.93
2022-10-12T04:29:18.353Z,12.19
2022-10-12T04:34:20.778Z,12.41
2022-10-12T04:39:23.770Z,12.55
2022-10-12T04:44:29.808Z,12.61
2022-10-12T04:49:34.559Z,12.66
2022-10-12T04:54:36.944Z,12.77
2022-10-12T04:59:39.352Z,12.88
2022-10-12T05:04:41.848Z,12.95
2022-10-12T05:09:44.300Z,13.10
2022-10-12T05:14:46.841Z,13.23
2022-10-12T05:19:49.237Z,13.31
2022-10-12T05:24:53.969Z,13.33
2022-10-12T05:29:56.572Z,13.45
2022-10-12T05:34:58.996Z,13.53
2022-10-12T05:40:02.991Z,13.57
2022-10-12T05:45:09.342Z,13.61
2022-10-12T05:50:11.826Z,13.72
2022-10-12T05:55:14.622Z,13.74
2022-10-12T06:00:19.265Z,13.33
2022-10-12T06:05:21.752Z,11.88
2022-10-12T06:10:27.738Z,10.96
2022-10-12T06:15:33.061Z,10.99
2022-10-12T06:20:36.246Z,12.24
2022-10-12T06:25:38.907Z,13.34
2022-10-12T06:30:43.368Z,14.09
2022-10-12T06:35:52.136Z,14.31
2022-10-12T06:40:54.879Z,13.79
2022-10-12T06:46:01.893Z,12.40
2022-10-12T06:51:04.686Z,12.29
2022-10-12T06:56:08.735Z,13.70
2022-10-12T07:01:11.327Z,14.18
2022-10-12T07:06:14.985Z,14.43
2022-10-12T07:11:17.407Z,14.12
2022-10-12T07:16:19.951Z,12.84
2022-10-12T07:21:22.709Z,12.37
2022-10-12T07:26:25.169Z,13.87
2022-10-12T07:31:28.762Z,15.29
2022-10-12T07:36:57.524Z,15.39
2022-10-12T07:41:54.403Z,14.00
2022-10-12T07:46:57.142Z,13.28
2022-10-12T07:51:59.711Z,14.31
2022-10-12T07:57:02.154Z,15.76
2022-10-12T08:02:04.829Z,15.85
2022-10-12T08:07:07.264Z,14.48
2022-10-12T08:12:10.817Z,14.11
2022-10-12T08:17:13.284Z,15.53
2022-10-12T08:22:15.775Z,16.54
2022-10-12T08:27:18.222Z,15.68
2022-10-12T08:32:22.096Z,14.85
2022-10-12T08:37:24.740Z,14.21
2022-10-12T08:42:41.192Z,14.15
2022-10-12T08:47:48.813Z,15.41
2022-10-12T08:53:00.134Z,16.43
2022-10-12T08:58:03.463Z,16.46
2022-10-12T09:03:42.743Z,15.45
2022-10-12T09:08:54.504Z,14.83
2022-10-12T09:14:08.659Z,14.32
2022-10-12T09:19:20.619Z,14.62
2022-10-12T09:24:26.705Z,16.18
2022-10-12T09:29:31.293Z,16.57
2022-10-12T09:34:34.747Z,15.66
2022-10-12T09:39:39.522Z,15.15
2022-10-12T09:44:48.268Z,14.89
2022-10-12T09:49:52.420Z,14.68
2022-10-12T09:55:05.273Z,15.24
2022-10-12T10:00:27.192Z,17.00
2022-10-12T10:05:34.786Z,17.65
2022-10-12T10:10:37.418Z,17.06
2022-10-12T10:15:43.420Z,16.83
2022-10-12T10:20:55.004Z,16.74
2022-10-12T10:26:09.400Z,16.44
2022-10-12T10:31:16.332Z,15.87
2022-10-12T10:36:23.214Z,15.48
2022-10-12T10:41:31.429Z,15.35
2022-10-12T10:46:37.525Z,15.36
2022-10-12T10:51:49.407Z,15.57
2022-10-12T10:56:56.702Z,15.74
2022-10-12T11:02:09.701Z,15.97
2022-10-12T11:07:51.502Z,16.28
2022-10-12T11:13:03.291Z,16.55
2022-10-12T11:18:20.979Z,16.58
2022-10-12T11:23:29.543Z,16.36
2022-10-12T11:28:34.357Z,15.89
2022-10-12T11:33:40.995Z,15.67
2022-10-12T11:38:48.360Z,15.45
2022-10-12T11:44:17.922Z,15.17
2022-10-12T11:49:31.327Z,15.16
2022-10-12T11:54:41.745Z,15.40
2022-10-12T11:59:47.954Z,15.70
2022-10-12T12:04:51.781Z,16.06
2022-10-12T12:09:54.848Z,16.36
2022-10-12T12:15:18.649Z,16.53
2022-10-12T12:20:43.086Z,16.49
2022-10-12T12:25:45.653Z,16.29
2022-10-12T12:31:07.038Z,16.23
2022-10-12T12:36:12.757Z,16.17
2022-10-12T12:41:34.433Z,16.24
2022-10-12T12:46:55.443Z,16.36
2022-10-12T12:51:58.054Z,16.35
2022-10-12T12:57:18.580Z,16.28
2022-10-12T13:02:53.585Z,16.35
2022-10-12T13:08:15.021Z,16.60
2022-10-12T13:13:39.288Z,16.63
2022-10-12T13:19:03.890Z,16.47
2022-10-12T13:24:33.449Z,16.30
2022-10-12T13:29:45.658Z,16.18
2022-10-12T13:34:54.835Z,16.01
2022-10-12T13:39:57.282Z,15.75
2022-10-12T13:45:03.304Z,15.57
2022-10-12T13:50:18.290Z,15.41
2022-10-12T13:55:26.621Z,15.29
2022-10-12T14:00:30.243Z,15.17
2022-10-12T14:05:33.649Z,14.99
2022-10-12T14:10:38.059Z,14.85
2022-10-12T14:15:41.400Z,14.71
2022-10-12T14:20:43.978Z,14.60
2022-10-12T14:25:55.317Z,14.53
2022-10-12T14:30:58.275Z,14.48
2022-10-12T14:36:27.192Z,14.49
2022-10-12T14:41:44.228Z,14.48
2022-10-12T14:47:10.752Z,14.44
2022-10-12T14:52:20.744Z,14.38
2022-10-12T14:57:24.907Z,14.29
2022-10-12T15:02:29.966Z,14.68
2022-10-12T15:07:34.039Z,15.99
2022-10-12T15:12:37.162Z,16.78
2022-10-12T15:17:39.586Z,16.78
2022-10-12T15:22:42.094Z,15.77
2022-10-12T15:27:44.678Z,15.12
2022-10-12T15:32:47.799Z,14.66
2022-10-12T15:37:51.229Z,14.31
2022-10-12T15:42:53.847Z,13.99
2022-10-12T15:47:56.337Z,13.69
2022-10-12T15:53:02.032Z,13.44
2022-10-12T15:58:04.683Z,13.74
2022-10-12T16:03:07.234Z,15.30
2022-10-12T16:08:09.837Z,16.31
2022-10-12T16:13:13.705Z,16.18
2022-10-12T16:18:16.616Z,15.01
2022-10-12T16:23:24.712Z,14.21
2022-10-12T16:28:29.773Z,13.67
2022-10-12T16:33:32.288Z,13.75
2022-10-12T16:38:36.240Z,14.93
2022-10-12T16:43:39.138Z,15.66
2022-10-12T16:48:41.540Z,16.12
2022-10-12T16:53:44.295Z,16.02
2022-10-12T16:58:48.318Z,14.87
2022-10-12T17:03:54.737Z,14.12
2022-10-12T17:09:01.095Z,13.63
2022-10-12T17:14:08.580Z,13.75
2022-10-12T17:19:16.823Z,14.97
2022-10-12T17:24:24.537Z,15.71
2022-10-12T17:29:31.899Z,16.15
2022-10-12T17:34:40.984Z,16.45
2022-10-12T17:39:47.830Z,16.14
2022-10-12T17:44:50.821Z,14.84
2022-10-12T17:49:53.414Z,14.04
2022-10-12T17:54:55.859Z,13.46
2022-10-12T17:59:58.295Z,13.51
2022-10-12T18:05:00.797Z,14.61
2022-10-12T18:10:04.956Z,15.24
2022-10-12T18:15:09.340Z,15.66
2022-10-12T18:20:12.957Z,15.92
2022-10-12T18:25:15.780Z,16.10
2022-10-12T18:30:18.435Z,16.35
2022-10-12T18:35:21.134Z,16.62
2022-10-12T18:40:23.633Z,16.28
2022-10-12T18:45:26.334Z,14.97
2022-10-12T18:50:28.818Z,14.11
2022-10-12T18:55:32.225Z,13.54
2022-10-12T19:00:34.687Z,13.65
2022-10-12T19:05:37.948Z,14.84
2022-10-12T19:10:41.087Z,15.60
2022-10-12T19:15:43.543Z,15.98
2022-10-12T19:20:46.007Z,16.25
2022-10-12T19:25:49.055Z,15.93
2022-10-12T19:30:54.038Z,14.65
2022-10-12T19:35:56.817Z,13.79
2022-10-12T19:41:01.097Z,13.66
2022-10-12T19:46:08.009Z,14.61
2022-10-12T19:51:14.216Z,15.08
2022-10-12T19:56:20.763Z,15.39
2022-10-12T20:01:27.391Z,15.68
2022-10-12T20:06:32.987Z,15.85
2022-10-12T20:11:35.755Z,15.97
2022-10-12T20:16:38.248Z,16.11
2022-10-12T20:21:40.796Z,15.71
2022-10-12T20:26:43.632Z,14.38
2022-10-12T20:31:46.249Z,13.47
2022-10-12T20:36:48.725Z,13.33
2022-10-12T20:41:51.167Z,14.35
2022-10-12T20:46:53.681Z,14.91
2022-10-12T20:51:56.353Z,15.24
2022-10-12T20:57:00.332Z,15.49
2022-10-12T21:02:05.745Z,15.11
2022-10-12T21:07:08.890Z,13.66
2022-10-12T21:12:11.812Z,12.72
2022-10-12T21:17:15.468Z,12.56
2022-10-12T21:22:18.610Z,13.50
2022-10-12T21:27:21.433Z,14.06
2022-10-12T21:32:23.885Z,14.45
2022-10-12T21:37:28.485Z,14.78
2022-10-12T21:42:30.912Z,15.08
2022-10-12T21:47:33.383Z,14.78
2022-10-12T21:52:36.149Z,13.46
2022-10-12T21:57:41.678Z,12.58
2022-10-12T22:02:44.113Z,12.41
2022-10-12T22:07:47.204Z,13.36
2022-10-12T22:12:49.823Z,13.93
2022-10-12T22:17:52.235Z,14.24
2022-10-12T22:22:54.713Z,14.44
2022-10-12T22:27:57.269Z,14.57
2022-10-12T22:32:59.621Z,14.66
2022-10-12T22:38:02.040Z,14.70
2022-10-12T22:43:04.435Z,14.77
2022-10-12T22:48:06.927Z,14.86
2022-10-12T22:53:09.588Z,14.46
2022-10-12T22:58:12.594Z,13.16
2022-10-12T23:03:15.127Z,12.29
2022-10-12T23:08:17.675Z,12.18
2022-10-12T23:13:20.191Z,13.13
2022-10-12T23:18:22.604Z,13.70
2022-10-12T23:23:25.212Z,14.09
2022-10-12T23:28:28.427Z,14.35
2022-10-12T23:33:31.004Z,14.53
2022-10-12T23:38:34.942Z,14.71
2022-10-12T23:43:37.715Z,14.88
2022-10-12T23:48:40.842Z,14.43
2022-10-12T23:53:43.509Z,13.07
2022-10-12T23:58:47.027Z,12.19
